Time;durP1;ratioP1;P1;durP2;ratioP2;P2;SDS_P1;SDS_P2;PMS_P1;PMS_P2;Temp;Humidity;BMP_temperature;BMP_pressure;BME280_temperature;BME280_humidity;BME280_pressure;Samples;Min_cycle;Max_cycle;Signal;HPM_P1;HPM_P2
2022/06/19 00:01:39;;;;;;;5.80;4.27;;;22.30;99.90;;;;;;5031947;28;20888;-69
2022/06/19 00:04:06;;;;;;;5.57;4.40;;;22.20;99.90;;;;;;5031934;28;20228;-69
2022/06/19 00:06:34;;;;;;;5.13;4.73;;;22.20;99.90;;;;;;5031410;28;20659;-68
2022/06/19 00:08:59;;;;;;;5.30;3.80;;;22.20;99.90;;;;;;5031710;28;20537;-69
2022/06/19 00:11:25;;;;;;;4.47;4.10;;;22.20;99.90;;;;;;5031587;28;20459;-68
2022/06/19 00:13:50;;;;;;;4.87;4.47;;;22.10;99.90;;;;;;5031559;28;20182;-68
2022/06/19 00:16:17;;;;;;;4.97;3.93;;;22.10;99.90;;;;;;5031420;28;20205;-68
2022/06/19 00:18:43;;;;;;;4.87;4.47;;;22.10;99.90;;;;;;5031529;28;20191;-68
2022/06/19 00:21:09;;;;;;;4.33;4.03;;;22.10;99.90;;;;;;5031697;28;20408;-68
2022/06/19 00:23:36;;;;;;;4.30;3.90;;;22.10;99.90;;;;;;5031553;28;20643;-68
2022/06/19 00:26:03;;;;;;;5.77;3.83;;;22.10;99.90;;;;;;5031196;28;20663;-69
2022/06/19 00:28:28;;;;;;;5.90;4.90;;;22.10;99.90;;;;;;5031560;28;20459;-69
2022/06/19 00:30:54;;;;;;;4.80;4.30;;;22.10;99.90;;;;;;5031520;28;20458;-69
2022/06/19 00:33:19;;;;;;;4.33;3.93;;;22.10;99.90;;;;;;5031460;28;20189;-69
2022/06/19 00:35:46;;;;;;;5.00;4.13;;;22.00;99.90;;;;;;5031284;28;20171;-69
2022/06/19 00:38:12;;;;;;;5.50;4.00;;;22.00;99.90;;;;;;5031461;28;20270;-70
2022/06/19 00:40:38;;;;;;;4.13;3.73;;;22.00;99.90;;;;;;5034615;28;21045;-69
2022/06/19 00:43:04;;;;;;;4.30;3.90;;;22.00;99.90;;;;;;5035320;28;20170;-69
2022/06/19 00:45:50;;;;;;;4.77;4.47;;;22.00;99.90;;;;;;5034936;28;20550;-69
2022/06/19 00:48:22;;;;;;;4.23;3.93;;;22.00;99.90;;;;;;5035135;28;20447;-69
2022/06/19 00:50:51;;;;;;;3.83;3.53;;;22.00;99.90;;;;;;5035113;28;20396;-69
2022/06/19 00:53:20;;;;;;;5.37;4.33;;;22.00;99.90;;;;;;5035133;28;20405;-68
2022/06/19 00:55:49;;;;;;;4.80;4.40;;;21.90;99.90;;;;;;5016999;28;20413;-68
2022/06/19 00:58:21;;;;;;;5.20;4.27;;;21.90;99.90;;;;;;5034914;28;20424;-69
2022/06/19 01:00:53;;;;;;;5.67;5.17;;;21.80;99.90;;;;;;5034861;28;20404;-68
2022/06/19 01:03:23;;;;;;;4.87;4.47;;;21.80;99.90;;;;;;5034879;28;20875;-68
2022/06/19 01:05:50;;;;;;;4.37;3.97;;;21.80;99.90;;;;;;5034602;28;20982;-68
2022/06/19 01:08:16;;;;;;;5.00;4.60;;;21.80;99.90;;;;;;5034906;28;20800;-68
2022/06/19 01:10:45;;;;;;;4.03;3.73;;;21.80;99.90;;;;;;5034860;28;20405;-68
2022/06/19 01:13:13;;;;;;;5.73;3.97;;;21.70;99.90;;;;;;5034755;28;20772;-69
2022/06/19 01:15:39;;;;;;;4.67;3.77;;;21.70;99.90;;;;;;5034442;28;21020;-70
2022/06/19 01:18:06;;;;;;;5.07;4.57;;;21.70;99.90;;;;;;5034712;28;20423;-69
2022/06/19 01:20:35;;;;;;;6.27;4.00;;;21.70;99.90;;;;;;5035117;28;20409;-69
2022/06/19 01:23:18;;;;;;;4.97;4.50;;;21.70;99.90;;;;;;5016800;28;20419;-69
2022/06/19 01:25:44;;;;;;;4.63;4.20;;;21.70;99.90;;;;;;5034285;28;20452;-69
2022/06/19 01:31:01;;;;;;;5.40;4.90;;;21.70;99.90;;;;;;5034770;28;20467;-69
2022/06/19 01:33:31;;;;;;;4.50;4.10;;;21.70;99.90;;;;;;5032219;28;20407;-69
2022/06/19 01:35:59;;;;;;;4.40;4.10;;;21.70;99.90;;;;;;5034197;28;20436;-69
2022/06/19 01:38:26;;;;;;;4.20;3.83;;;21.70;99.90;;;;;;5034449;28;20426;-69
2022/06/19 01:40:57;;;;;;;6.67;3.70;;;21.70;99.90;;;;;;5034484;28;20406;-69
2022/06/19 01:43:23;;;;;;;4.90;4.40;;;21.70;99.90;;;;;;5036094;28;20409;-69
2022/06/19 01:45:52;;;;;;;4.90;4.23;;;21.60;99.90;;;;;;5020213;28;20513;-69
2022/06/19 01:48:25;;;;;;;6.23;4.43;;;21.60;99.90;;;;;;5034549;28;20313;-69
2022/06/19 01:50:53;;;;;;;10.93;4.67;;;21.50;99.90;;;;;;5034042;28;20447;-69
2022/06/19 01:53:26;;;;;;;5.07;4.67;;;21.50;99.90;;;;;;5034219;28;20454;-69
2022/06/19 01:55:53;;;;;;;5.43;4.20;;;21.40;99.90;;;;;;5034487;28;20421;-69
2022/06/19 01:58:20;;;;;;;5.00;3.97;;;21.30;99.90;;;;;;5016741;28;20535;-69
2022/06/19 02:00:48;;;;;;;5.40;4.00;;;21.30;99.90;;;;;;5034766;28;20418;-69
2022/06/19 02:03:25;;;;;;;4.73;4.30;;;21.30;99.90;;;;;;5033878;28;20427;-69
2022/06/19 02:05:50;;;;;;;4.60;4.20;;;21.30;99.90;;;;;;5033937;28;20510;-69
2022/06/19 02:08:17;;;;;;;4.87;4.40;;;21.30;99.90;;;;;;5033874;28;20429;-69
2022/06/19 02:10:45;;;;;;;4.47;4.07;;;21.30;99.90;;;;;;5016487;28;20176;-68
2022/06/19 02:13:13;;;;;;;4.40;4.10;;;21.30;99.90;;;;;;5033767;28;20531;-69
2022/06/19 02:15:39;;;;;;;4.33;4.03;;;21.30;99.90;;;;;;5033578;28;20421;-69
2022/06/19 02:18:07;;;;;;;4.50;4.10;;;21.30;99.90;;;;;;5034195;28;20435;-69
2022/06/19 02:20:33;;;;;;;5.13;4.73;;;21.30;99.90;;;;;;5000035;28;20941;-69
2022/06/19 02:23:00;;;;;;;4.67;4.03;;;21.30;99.90;;;;;;5033855;28;20417;-69
2022/06/19 02:25:26;;;;;;;4.00;3.70;;;21.30;99.90;;;;;;5033404;28;20200;-70
2022/06/19 02:27:52;;;;;;;3.97;3.67;;;21.30;99.90;;;;;;5033598;28;20953;-69
2022/06/19 02:30:18;;;;;;;3.90;3.60;;;21.30;99.90;;;;;;5033992;28;20701;-69
2022/06/19 02:32:47;;;;;;;4.30;3.90;;;21.30;99.90;;;;;;5033498;28;20429;-69
2022/06/19 02:35:16;;;;;;;4.80;4.20;;;21.30;99.90;;;;;;5033500;28;20175;-69
2022/06/19 02:37:47;;;;;;;4.57;3.57;;;21.20;99.90;;;;;;5033244;28;20546;-69
2022/06/19 02:40:43;;;;;;;3.97;3.57;;;21.30;99.90;;;;;;5033311;28;20411;-69
2022/06/19 02:43:16;;;;;;;4.73;4.30;;;21.30;99.90;;;;;;5033194;28;20473;-69
2022/06/19 02:45:42;;;;;;;5.37;4.30;;;21.20;99.90;;;;;;5016049;28;20461;-69
2022/06/19 02:48:17;;;;;;;4.57;4.17;;;21.20;99.90;;;;;;5033341;28;20448;-69
2022/06/19 02:50:43;;;;;;;7.47;4.60;;;21.10;99.90;;;;;;5033286;28;20541;-69
2022/06/19 02:53:09;;;;;;;5.50;4.50;;;21.10;99.90;;;;;;5032968;28;21041;-69
2022/06/19 02:55:35;;;;;;;4.83;4.43;;;21.10;99.90;;;;;;5032936;28;20499;-69
2022/06/19 02:58:00;;;;;;;6.70;5.47;;;21.10;99.90;;;;;;5032796;28;20197;-69
2022/06/19 03:00:27;;;;;;;4.00;3.63;;;21.10;99.90;;;;;;5015311;28;20190;-69
2022/06/19 03:03:18;;;;;;;6.33;4.07;;;21.10;99.90;;;;;;5032216;28;20188;-70
2022/06/19 03:05:43;;;;;;;4.70;4.27;;;21.10;99.90;;;;;;5032921;28;20451;-70
2022/06/19 03:08:09;;;;;;;4.23;3.83;;;21.10;99.90;;;;;;5032974;28;20506;-69
2022/06/19 03:10:35;;;;;;;4.97;4.07;;;21.10;99.90;;;;;;5032773;28;20172;-69
2022/06/19 03:13:01;;;;;;;4.30;3.87;;;21.10;99.90;;;;;;5032874;28;20702;-68
2022/06/19 03:15:27;;;;;;;5.37;4.67;;;21.10;99.90;;;;;;5032549;28;20412;-68
2022/06/19 03:17:53;;;;;;;5.57;5.00;;;21.10;99.90;;;;;;5033297;28;20676;-68
2022/06/19 03:20:21;;;;;;;4.50;4.20;;;21.20;99.90;;;;;;5032550;28;20201;-68
2022/06/19 03:22:47;;;;;;;5.73;5.33;;;21.20;99.90;;;;;;5032545;28;20176;-69
2022/06/19 03:25:13;;;;;;;4.17;3.87;;;21.20;99.90;;;;;;5032236;28;20451;-70
2022/06/19 03:27:38;;;;;;;7.60;4.50;;;21.20;99.90;;;;;;5032337;28;20421;-69
2022/06/19 03:30:05;;;;;;;5.07;4.63;;;21.20;99.90;;;;;;5032390;28;20211;-69
2022/06/19 03:32:31;;;;;;;4.63;4.27;;;21.20;99.90;;;;;;5032292;28;20171;-68
2022/06/19 03:34:56;;;;;;;4.57;4.07;;;21.20;99.90;;;;;;5032001;28;20485;-68
2022/06/19 03:37:22;;;;;;;5.77;5.10;;;21.30;99.90;;;;;;5032294;28;20248;-69
2022/06/19 03:39:48;;;;;;;5.00;4.57;;;21.30;99.90;;;;;;5032328;28;20170;-68
2022/06/19 03:42:15;;;;;;;6.10;5.20;;;21.40;99.90;;;;;;5032257;28;20256;-69
2022/06/19 03:44:41;;;;;;;5.67;5.17;;;21.40;99.90;;;;;;5031930;28;20165;-69
2022/06/19 03:47:06;;;;;;;5.53;4.27;;;21.40;99.90;;;;;;5032090;28;20769;-69
2022/06/19 03:49:32;;;;;;;5.27;4.43;;;21.50;99.90;;;;;;5032151;28;20201;-69
2022/06/19 03:51:58;;;;;;;4.50;4.13;;;21.50;99.90;;;;;;5031976;28;20173;-69
2022/06/19 03:54:24;;;;;;;5.00;4.60;;;21.60;99.90;;;;;;5031910;28;20500;-69
2022/06/19 03:56:50;;;;;;;5.20;4.70;;;21.60;99.90;;;;;;5031824;28;20175;-68
2022/06/19 03:59:16;;;;;;;5.40;4.67;;;21.70;99.90;;;;;;5031985;28;20179;-69
2022/06/19 04:01:41;;;;;;;9.10;5.73;;;21.70;99.90;;;;;;5031873;28;20172;-69
2022/06/19 04:04:09;;;;;;;4.17;3.87;;;21.70;99.90;;;;;;5031795;28;20409;-69
2022/06/19 04:06:38;;;;;;;9.20;5.13;;;21.80;99.90;;;;;;5031724;28;21040;-69
2022/06/19 04:09:06;;;;;;;5.30;4.87;;;22.00;99.90;;;;;;5031911;28;20547;-69
2022/06/19 04:11:32;;;;;;;5.10;4.70;;;22.00;99.90;;;;;;5031787;28;20458;-69
2022/06/19 04:13:58;;;;;;;5.57;5.03;;;22.10;99.90;;;;;;5031542;28;20401;-69
2022/06/19 04:16:28;;;;;;;6.17;4.73;;;22.20;99.90;;;;;;5031647;28;20635;-69
2022/06/19 04:18:56;;;;;;;6.40;5.50;;;22.50;99.90;;;;;;5031623;28;20420;-69
2022/06/19 04:21:28;;;;;;;4.87;4.43;;;22.70;99.90;;;;;;5031578;28;20403;-69
2022/06/19 04:23:56;;;;;;;4.40;4.00;;;22.80;99.90;;;;;;5031673;28;20482;-70
2022/06/19 04:26:24;;;;;;;4.70;4.40;;;22.90;99.90;;;;;;5031332;28;20984;-69
2022/06/19 04:28:50;;;;;;;4.67;4.37;;;23.00;99.90;;;;;;5031318;28;20911;-69
2022/06/19 04:31:16;;;;;;;5.97;4.77;;;23.20;99.90;;;;;;5031645;28;20445;-69
2022/06/19 04:33:42;;;;;;;6.70;6.10;;;23.30;99.90;;;;;;5031563;28;20166;-68
2022/06/19 04:36:11;;;;;;;6.50;5.37;;;23.40;99.90;;;;;;5031289;28;20414;-68
2022/06/19 04:38:38;;;;;;;5.90;4.33;;;23.50;99.90;;;;;;5031305;28;20435;-69
2022/06/19 04:41:04;;;;;;;4.70;4.30;;;23.70;99.90;;;;;;5031536;28;20507;-69
2022/06/19 04:43:30;;;;;;;6.40;5.07;;;24.00;99.90;;;;;;5031127;28;20834;-69
2022/06/19 04:46:03;;;;;;;5.63;5.23;;;24.00;99.90;;;;;;5031269;28;20202;-69
2022/06/19 04:48:29;;;;;;;4.80;4.40;;;24.00;99.90;;;;;;5013579;28;21037;-69
2022/06/19 04:50:54;;;;;;;5.73;5.23;;;24.20;99.90;;;;;;5013614;28;20443;-69
2022/06/19 04:53:20;;;;;;;5.10;4.70;;;24.10;99.90;;;;;;5031187;28;20222;-69
2022/06/19 04:55:45;;;;;;;5.30;4.90;;;24.30;99.90;;;;;;5031132;28;20196;-69
2022/06/19 04:58:11;;;;;;;5.63;5.13;;;24.60;99.90;;;;;;5031083;28;20186;-69
2022/06/19 05:00:36;;;;;;;4.63;4.33;;;24.50;99.90;;;;;;5031301;28;20254;-69
2022/06/19 05:03:02;;;;;;;4.60;4.23;;;24.80;99.90;;;;;;5031037;28;20197;-69
2022/06/19 05:05:28;;;;;;;4.97;4.57;;;25.10;99.90;;;;;;5031253;28;20666;-69
2022/06/19 05:07:53;;;;;;;6.30;4.67;;;25.20;99.90;;;;;;5031138;28;20198;-70
2022/06/19 05:10:19;;;;;;;4.97;4.53;;;25.50;99.90;;;;;;5031683;28;20206;-68
2022/06/19 05:12:45;;;;;;;5.73;5.33;;;25.80;99.90;;;;;;5031150;28;20196;-69
2022/06/19 05:15:10;;;;;;;4.83;4.47;;;25.60;99.90;;;;;;5031199;28;20195;-68
2022/06/19 05:17:36;;;;;;;4.50;4.20;;;25.80;99.90;;;;;;5031129;28;20226;-69
2022/06/19 05:20:03;;;;;;;5.43;5.03;;;26.00;99.90;;;;;;5031198;28;20190;-69
2022/06/19 05:22:30;;;;;;;7.23;5.20;;;26.00;99.90;;;;;;5013161;28;20175;-68
2022/06/19 05:24:56;;;;;;;5.73;5.20;;;26.40;99.90;;;;;;5031319;28;20408;-68
2022/06/19 05:27:22;;;;;;;5.67;5.23;;;26.90;99.90;;;;;;5034403;28;20421;-69
2022/06/19 05:29:48;;;;;;;5.40;5.00;;;26.80;99.90;;;;;;5034636;28;20167;-69
2022/06/19 05:32:13;;;;;;;5.43;4.93;;;26.60;99.90;;;;;;5034740;28;20159;-69
2022/06/19 05:34:39;;;;;;;5.43;5.00;;;26.40;99.90;;;;;;5034318;28;20641;-69
2022/06/19 05:37:05;;;;;;;5.60;5.20;;;26.00;99.90;;;;;;5034323;28;20191;-69
2022/06/19 05:39:31;;;;;;;5.60;5.07;;;26.30;99.90;;;;;;5034538;28;20217;-69
2022/06/19 05:41:57;;;;;;;5.80;5.30;;;26.40;99.90;;;;;;5034183;28;20407;-69
2022/06/19 05:44:28;;;;;;;4.93;4.43;;;26.70;99.90;;;;;;5034248;28;20410;-69
2022/06/19 05:46:54;;;;;;;5.33;4.77;;;26.80;99.90;;;;;;5034144;28;20453;-69
2022/06/19 05:49:19;;;;;;;5.30;4.80;;;26.90;99.90;;;;;;5074262;22;20491;-68
2022/06/19 05:51:46;;;;;;;5.37;4.87;;;26.90;99.90;;;;;;5054169;28;20646;-68
2022/06/19 05:54:11;;;;;;;6.00;5.30;;;27.60;99.90;;;;;;5054188;28;20241;-69
2022/06/19 05:56:37;;;;;;;7.83;4.20;;;27.50;99.90;;;;;;5054104;28;20505;-69
2022/06/19 05:59:03;;;;;;;4.90;4.50;;;28.20;99.90;;;;;;5054459;28;20190;-69
2022/06/19 06:01:29;;;;;;;4.87;4.47;;;28.40;99.90;;;;;;5055624;28;20209;-69
2022/06/19 06:03:56;;;;;;;5.40;4.37;;;28.10;99.90;;;;;;5056149;28;20174;-69
2022/06/19 06:06:29;;;;;;;9.43;5.33;;;28.20;99.90;;;;;;5054020;28;20892;-69
2022/06/19 06:08:55;;;;;;;4.27;3.93;;;28.00;99.90;;;;;;5053971;28;20425;-69
2022/06/19 06:11:22;;;;;;;5.17;4.67;;;28.40;99.90;;;;;;5053793;28;20515;-69
2022/06/19 06:13:48;;;;;;;7.50;4.50;;;28.50;99.80;;;;;;5053867;28;20939;-69
2022/06/19 06:16:19;;;;;;;4.00;3.70;;;28.30;99.90;;;;;;5053787;28;20504;-68
2022/06/19 06:18:45;;;;;;;5.03;4.63;;;28.70;99.80;;;;;;5054177;28;20967;-68
2022/06/19 06:21:22;;;;;;;6.27;4.27;;;28.30;99.90;;;;;;5053981;28;20406;-68
2022/06/19 06:23:48;;;;;;;5.10;4.60;;;28.40;99.70;;;;;;5053948;28;20229;-69
2022/06/19 06:26:20;;;;;;;5.40;4.00;;;28.50;99.00;;;;;;5053747;28;20943;-68
2022/06/19 06:28:48;;;;;;;6.07;5.30;;;28.70;99.20;;;;;;5054039;28;20478;-69
2022/06/19 06:31:14;;;;;;;4.07;3.77;;;29.40;98.40;;;;;;5053524;28;20539;-68
2022/06/19 06:33:40;;;;;;;6.00;5.10;;;29.20;98.00;;;;;;5053243;28;20513;-69
2022/06/19 06:36:06;;;;;;;5.63;4.97;;;29.40;97.50;;;;;;5052917;28;20206;-69
2022/06/19 06:38:32;;;;;;;3.90;3.47;;;29.30;97.20;;;;;;5054584;28;20664;-69
2022/06/19 06:40:57;;;;;;;5.27;4.40;;;29.50;97.40;;;;;;5054215;28;20550;-68
2022/06/19 06:43:23;;;;;;;5.30;4.37;;;30.20;96.00;;;;;;5054330;28;20413;-69
2022/06/19 06:45:50;;;;;;;4.77;4.40;;;30.40;95.60;;;;;;5058668;28;20676;-69
2022/06/19 06:48:16;;;;;;;4.90;3.73;;;30.60;94.40;;;;;;5057019;28;20445;-68
2022/06/19 06:50:42;;;;;;;5.87;3.77;;;31.00;93.80;;;;;;5053929;28;20420;-67
2022/06/19 06:53:09;;;;;;;3.97;3.67;;;31.30;92.80;;;;;;5052015;28;20504;-67
2022/06/19 06:55:39;;;;;;;5.13;3.83;;;31.30;92.70;;;;;;5053089;28;20854;-68
2022/06/19 06:58:05;;;;;;;4.83;4.37;;;31.40;92.00;;;;;;5052618;28;20456;-68
2022/06/19 07:00:30;;;;;;;6.60;4.20;;;31.40;91.20;;;;;;5052610;28;20417;-67
2022/06/19 07:02:56;;;;;;;3.57;3.27;;;30.80;91.20;;;;;;5052368;28;20182;-68
2022/06/19 07:05:21;;;;;;;4.20;3.80;;;31.00;91.80;;;;;;5052648;28;20194;-67
2022/06/19 07:07:47;;;;;;;5.33;3.90;;;31.30;91.00;;;;;;5053080;28;20320;-67
2022/06/19 07:10:12;;;;;;;4.17;3.80;;;32.00;89.90;;;;;;5052808;28;20175;-68
2022/06/19 07:12:38;;;;;;;4.27;3.87;;;32.40;88.10;;;;;;5052493;28;20167;-68
2022/06/19 07:15:04;;;;;;;4.67;3.70;;;32.10;87.00;;;;;;5052477;28;20201;-67
2022/06/19 07:17:29;;;;;;;5.43;4.20;;;32.10;88.80;;;;;;5052790;28;20195;-68
2022/06/19 07:19:55;;;;;;;3.63;2.97;;;32.40;87.10;;;;;;5052881;28;20167;-67
2022/06/19 07:22:21;;;;;;;5.07;3.87;;;32.40;84.90;;;;;;5052923;28;20361;-68
2022/06/19 07:24:49;;;;;;;4.10;3.80;;;32.60;83.80;;;;;;5052562;28;20198;-67
2022/06/19 07:27:15;;;;;;;4.17;3.77;;;33.00;81.90;;;;;;5052879;28;20538;-67
2022/06/19 07:29:42;;;;;;;3.60;3.30;;;32.70;85.00;;;;;;5050981;28;20504;-67
2022/06/19 07:32:08;;;;;;;3.90;3.60;;;33.20;81.60;;;;;;5052820;28;20500;-68
2022/06/19 07:34:34;;;;;;;5.93;3.70;;;33.70;80.40;;;;;;5052963;28;20500;-68
2022/06/19 07:36:59;;;;;;;4.80;3.50;;;33.80;81.00;;;;;;5053610;28;20448;-68
2022/06/19 07:39:25;;;;;;;3.37;2.73;;;33.80;79.50;;;;;;5052616;28;20201;-68
2022/06/19 07:41:51;;;;;;;8.83;4.50;;;33.80;78.30;;;;;;5052251;28;20216;-68
2022/06/19 07:44:16;;;;;;;4.57;3.40;;;33.70;77.80;;;;;;5052106;28;20175;-68
2022/06/19 07:52:11;;;;;;;4.30;3.20;;;33.90;74.30;;;;;;5051732;28;20784;-66
2022/06/19 07:54:37;;;;;;;4.37;3.03;;;33.90;73.10;;;;;;5051723;28;20401;-67
2022/06/19 07:57:03;;;;;;;5.30;3.00;;;34.40;73.40;;;;;;5052134;28;20413;-67
2022/06/19 07:59:28;;;;;;;3.20;2.80;;;34.20;73.60;;;;;;5051704;28;20205;-67
2022/06/19 08:01:54;;;;;;;5.30;2.73;;;33.90;73.40;;;;;;5052208;28;20170;-67
2022/06/19 08:04:19;;;;;;;5.17;3.63;;;33.60;73.80;;;;;;5052265;28;20511;-69
2022/06/19 08:06:45;;;;;;;3.27;2.77;;;34.10;71.00;;;;;;5051769;28;20688;-68
2022/06/19 08:09:10;;;;;;;5.00;2.47;;;35.00;71.80;;;;;;5051834;28;20655;-68
2022/06/19 08:11:36;;;;;;;3.40;2.50;;;34.80;69.60;;;;;;5051399;28;20365;-67
2022/06/19 08:14:02;;;;;;;6.53;2.40;;;35.50;69.80;;;;;;5051097;28;20167;-68
2022/06/19 08:16:27;;;;;;;3.27;2.83;;;36.30;66.10;;;;;;5051289;28;20181;-67
2022/06/19 08:18:53;;;;;;;2.90;2.17;;;35.40;67.40;;;;;;5051731;28;20191;-67
2022/06/19 08:21:18;;;;;;;2.93;2.50;;;36.00;68.30;;;;;;5052046;28;20178;-68
2022/06/19 08:23:44;;;;;;;6.40;2.73;;;35.80;66.00;;;;;;5051313;28;20171;-67
2022/06/19 08:26:09;;;;;;;4.20;2.20;;;35.40;62.80;;;;;;5050970;28;20594;-68
2022/06/19 08:28:46;;;;;;;3.30;2.60;;;36.40;60.30;;;;;;5051382;28;20187;-67
2022/06/19 08:31:11;;;;;;;3.60;2.10;;;36.30;60.80;;;;;;5051256;28;20167;-68
2022/06/19 08:33:37;;;;;;;2.73;2.33;;;36.30;59.70;;;;;;5050906;28;20428;-67
2022/06/19 08:36:07;;;;;;;5.33;2.60;;;36.00;60.50;;;;;;5050960;28;20629;-68
2022/06/19 08:38:40;;;;;;;2.40;2.13;;;36.40;61.10;;;;;;5049710;28;20201;-68
2022/06/19 08:41:32;;;;;;;4.23;2.97;;;36.50;58.90;;;;;;5052320;28;20484;-68
2022/06/19 08:44:42;;;;;;;2.93;2.30;;;36.10;58.70;;;;;;5054982;28;20412;-68
2022/06/19 08:47:43;;;;;;;3.00;2.70;;;36.20;58.90;;;;;;5053290;28;20453;-68
2022/06/19 08:50:25;;;;;;;3.40;3.10;;;36.10;58.30;;;;;;5051336;28;20503;-68
2022/06/19 08:53:25;;;;;;;3.00;2.70;;;36.30;56.40;;;;;;5051330;28;20397;-68
2022/06/19 08:56:05;;;;;;;3.80;3.50;;;36.50;55.80;;;;;;5051254;28;20452;-68
2022/06/19 08:58:57;;;;;;;5.57;4.70;;;36.70;56.00;;;;;;5051563;28;20428;-68
2022/06/19 09:01:31;;;;;;;4.50;3.70;;;37.10;56.20;;;;;;5054420;28;20411;-68
2022/06/19 09:07:30;;;;;;;5.60;3.80;;;37.00;55.50;;;;;;5055408;28;20466;-68
2022/06/19 09:10:14;;;;;;;5.87;4.03;;;36.30;55.40;;;;;;5055324;28;20397;-68
2022/06/19 09:12:51;;;;;;;4.90;4.50;;;36.40;55.00;;;;;;5055371;28;20397;-70
2022/06/19 09:15:26;;;;;;;7.60;4.93;;;36.70;53.80;;;;;;5054821;28;20417;-68
2022/06/19 09:18:02;;;;;;;4.90;4.30;;;36.10;53.80;;;;;;5054888;28;20416;-68
2022/06/19 09:20:54;;;;;;;7.33;5.10;;;36.30;54.20;;;;;;5055064;28;20481;-68
2022/06/19 09:23:59;;;;;;;6.90;4.77;;;36.40;54.10;;;;;;5055090;28;20405;-68
2022/06/19 09:27:00;;;;;;;5.50;4.50;;;36.90;53.00;;;;;;5054477;28;20540;-68
2022/06/19 09:29:33;;;;;;;6.20;4.57;;;36.00;52.80;;;;;;4992718;28;20439;-68
2022/06/19 09:32:03;;;;;;;6.17;4.00;;;36.60;53.20;;;;;;5045255;28;20469;-68
2022/06/19 09:34:32;;;;;;;4.50;3.80;;;37.10;52.60;;;;;;5054823;28;20478;-68
2022/06/19 09:37:10;;;;;;;3.33;3.07;;;36.70;51.80;;;;;;5054996;28;20397;-68
2022/06/19 09:39:46;;;;;;;4.70;3.83;;;37.00;52.80;;;;;;5055409;28;20864;-68
2022/06/19 09:42:43;;;;;;;7.50;3.70;;;36.70;51.30;;;;;;5055088;28;20524;-68
2022/06/19 09:45:20;;;;;;;4.17;3.30;;;36.60;51.50;;;;;;5054480;28;20453;-68
2022/06/19 09:48:02;;;;;;;4.40;4.10;;;37.10;52.20;;;;;;5053392;28;20441;-67
2022/06/19 09:50:43;;;;;;;3.50;3.03;;;37.10;50.60;;;;;;5054891;28;20401;-68
2022/06/19 09:53:15;;;;;;;8.77;5.10;;;37.30;51.10;;;;;;5054670;28;20409;-68
2022/06/19 09:55:46;;;;;;;4.30;2.63;;;37.80;51.90;;;;;;5054881;28;20404;-68
2022/06/19 09:58:25;;;;;;;2.67;1.97;;;37.60;49.20;;;;;;5054312;28;20910;-68
2022/06/19 10:00:56;;;;;;;2.67;2.00;;;36.90;49.40;;;;;;5054103;28;20393;-68
2022/06/19 10:03:41;;;;;;;4.23;2.17;;;36.60;48.80;;;;;;5053574;28;20765;-68
2022/06/19 10:06:15;;;;;;;3.93;2.53;;;36.10;50.30;;;;;;5051892;28;20449;-69
2022/06/19 10:08:50;;;;;;;2.70;1.80;;;36.60;48.70;;;;;;5053407;28;20449;-69
2022/06/19 10:11:21;;;;;;;3.97;2.13;;;36.80;49.30;;;;;;5053346;28;20393;-68
2022/06/19 10:14:03;;;;;;;3.60;3.30;;;36.70;48.60;;;;;;5054016;28;20943;-69
2022/06/19 10:16:46;;;;;;;5.10;1.90;;;36.40;49.30;;;;;;5053698;28;20446;-68
2022/06/19 10:19:16;;;;;;;3.43;2.17;;;36.30;49.70;;;;;;5053411;28;20428;-69
2022/06/19 10:24:38;;;;;;;6.20;3.33;;;36.60;49.10;;;;;;5053469;28;20444;-69
2022/06/19 10:27:10;;;;;;;5.20;2.30;;;36.00;49.50;;;;;;5054482;28;20951;-69
2022/06/19 10:30:01;;;;;;;4.60;2.50;;;36.10;50.20;;;;;;5054536;28;20405;-69
2022/06/19 10:32:47;;;;;;;7.30;3.47;;;36.30;50.10;;;;;;5060083;28;20390;-68
2022/06/19 10:35:30;;;;;;;5.30;2.57;;;36.10;49.80;;;;;;5054164;28;20451;-68
2022/06/19 10:38:27;;;;;;;3.93;2.10;;;36.30;50.30;;;;;;5053692;28;20482;-68
2022/06/19 10:44:52;;;;;;;2.57;1.93;;;36.00;49.90;;;;;;5053440;28;20779;-68
2022/06/19 10:47:31;;;;;;;2.50;1.80;;;35.90;50.40;;;;;;5053962;28;20539;-68
2022/06/19 10:50:17;;;;;;;2.47;1.70;;;36.40;50.40;;;;;;5054807;28;20864;-68
2022/06/19 10:53:03;;;;;;;3.40;1.80;;;36.30;50.00;;;;;;5053508;28;20409;-69
2022/06/19 10:55:40;;;;;;;4.50;2.97;;;36.50;49.60;;;;;;5053391;28;20880;-69
2022/06/19 10:58:22;;;;;;;3.20;2.30;;;36.50;49.30;;;;;;5053780;28;20413;-69
2022/06/19 11:00:59;;;;;;;9.03;2.60;;;36.30;49.90;;;;;;5054057;28;20419;-68
2022/06/19 11:06:49;;;;;;;3.70;2.30;;;35.60;49.70;;;;;;5053813;28;20440;-68
2022/06/19 11:09:24;;;;;;;5.50;2.03;;;36.30;49.40;;;;;;5053117;28;20436;-68
2022/06/19 11:11:54;;;;;;;4.77;2.90;;;36.10;49.40;;;;;;5053109;28;20409;-68
2022/06/19 11:14:30;;;;;;;2.90;2.50;;;36.20;49.70;;;;;;5052761;28;20397;-68
2022/06/19 11:17:03;;;;;;;2.90;1.83;;;36.30;49.40;;;;;;5052861;28;20409;-68
2022/06/19 11:19:41;;;;;;;3.70;2.47;;;36.20;49.70;;;;;;5052340;28;20429;-68
2022/06/19 11:22:25;;;;;;;5.03;2.20;;;36.10;49.20;;;;;;5051999;28;20412;-68
2022/06/19 11:24:52;;;;;;;2.93;2.40;;;35.90;49.70;;;;;;5051679;28;20405;-68
2022/06/19 11:27:22;;;;;;;5.93;2.10;;;35.80;49.90;;;;;;5052012;28;20424;-68
2022/06/19 11:29:50;;;;;;;5.93;2.57;;;36.00;50.20;;;;;;5052269;28;20743;-68
2022/06/19 11:32:19;;;;;;;4.00;2.70;;;35.90;49.20;;;;;;5052204;28;20416;-69
2022/06/19 11:35:05;;;;;;;3.33;2.00;;;35.90;49.50;;;;;;5051947;28;20428;-69
2022/06/19 11:37:37;;;;;;;4.13;2.70;;;36.30;49.40;;;;;;5052619;28;20429;-69
2022/06/19 11:40:05;;;;;;;5.30;3.07;;;36.50;49.70;;;;;;5052390;28;20432;-68
2022/06/19 11:42:47;;;;;;;7.43;2.33;;;36.70;49.20;;;;;;5052112;28;20409;-68
2022/06/19 11:45:12;;;;;;;5.20;2.30;;;36.70;49.30;;;;;;5051808;28;20467;-68
2022/06/19 11:47:41;;;;;;;5.07;2.60;;;36.50;49.50;;;;;;5052420;28;20437;-68
2022/06/19 11:50:28;;;;;;;3.77;2.77;;;36.00;49.40;;;;;;5053067;28;20155;-69
2022/06/19 11:53:01;;;;;;;5.90;2.60;;;35.90;50.30;;;;;;5053200;28;20401;-69
2022/06/19 11:55:31;;;;;;;5.60;3.30;;;36.00;52.60;;;;;;5053251;28;20424;-69
2022/06/19 11:58:21;;;;;;;6.10;4.43;;;36.10;54.80;;;;;;5052926;28;20433;-69
2022/06/19 12:01:06;;;;;;;6.77;3.83;;;35.90;57.80;;;;;;5053462;28;20401;-69
2022/06/19 12:03:50;;;;;;;4.50;4.03;;;35.50;60.00;;;;;;5053258;28;20404;-69
2022/06/19 12:06:18;;;;;;;5.40;4.63;;;35.30;61.80;;;;;;5052900;28;20448;-69
2022/06/19 12:09:00;;;;;;;5.10;4.13;;;34.70;63.00;;;;;;5053960;28;20417;-69
2022/06/19 12:11:37;;;;;;;4.30;3.80;;;34.30;64.50;;;;;;5054236;28;20409;-68
2022/06/19 12:14:04;;;;;;;3.47;3.17;;;34.20;65.00;;;;;;5053997;28;20412;-69
2022/06/19 12:16:30;;;;;;;4.17;3.77;;;34.10;64.70;;;;;;5054284;28;20410;-68
2022/06/19 12:19:22;;;;;;;5.90;3.53;;;34.00;65.20;;;;;;5055279;28;20504;-68
2022/06/19 12:21:54;;;;;;;6.73;4.30;;;33.60;65.20;;;;;;5056091;28;20179;-68
2022/06/19 12:24:27;;;;;;;5.20;4.23;;;33.70;64.80;;;;;;5053350;28;20773;-68
2022/06/19 12:26:57;;;;;;;5.17;3.90;;;33.50;63.90;;;;;;5053354;28;20468;-68
2022/06/19 12:30:01;;;;;;;4.43;3.20;;;33.50;63.30;;;;;;5052522;28;20467;-69
2022/06/19 12:32:43;;;;;;;3.37;3.03;;;33.70;62.10;;;;;;5052995;28;20404;-68
2022/06/19 12:35:23;;;;;;;6.40;3.40;;;33.50;62.50;;;;;;5055082;28;20400;-69
2022/06/19 12:37:48;;;;;;;6.63;2.87;;;33.80;61.10;;;;;;5057027;28;20416;-69
2022/06/19 12:40:17;;;;;;;4.10;2.60;;;33.60;60.00;;;;;;5055370;28;20420;-69
2022/06/19 12:43:00;;;;;;;4.03;3.70;;;33.60;60.30;;;;;;5056493;28;20171;-70
2022/06/19 12:45:44;;;;;;;4.90;3.07;;;33.40;61.50;;;;;;5057468;28;20498;-69
2022/06/19 12:48:45;;;;;;;7.30;4.57;;;33.50;61.70;;;;;;5056083;28;20540;-69
2022/06/19 12:51:14;;;;;;;4.83;2.57;;;33.00;62.20;;;;;;5055939;28;20402;-69
2022/06/19 12:54:24;;;;;;;2.73;2.53;;;33.00;62.40;;;;;;5056125;28;20397;-69
2022/06/19 12:57:15;;;;;;;4.13;2.90;;;33.00;62.80;;;;;;5056662;28;20397;-69
2022/06/19 12:59:51;;;;;;;4.10;2.90;;;33.00;62.50;;;;;;5054897;28;20420;-69
2022/06/19 13:02:23;;;;;;;4.17;2.73;;;33.00;61.70;;;;;;5056638;28;20746;-68
2022/06/19 13:05:00;;;;;;;5.03;4.53;;;32.60;61.20;;;;;;5056572;28;20408;-69
2022/06/19 13:07:47;;;;;;;4.33;2.90;;;32.60;61.20;;;;;;5056701;28;20449;-69
2022/06/19 13:10:32;;;;;;;3.23;2.63;;;32.60;62.10;;;;;;5056525;28;20393;-69
2022/06/19 13:13:12;;;;;;;4.83;3.00;;;32.40;61.40;;;;;;5055973;28;20381;-69
2022/06/19 13:15:59;;;;;;;5.10;2.90;;;32.30;62.40;;;;;;5055892;28;20401;-69
2022/06/19 13:18:39;;;;;;;3.80;2.47;;;32.40;61.90;;;;;;5056329;28;20435;-69
2022/06/19 13:21:30;;;;;;;3.97;2.93;;;32.60;61.60;;;;;;5055553;28;20430;-70
2022/06/19 13:24:29;;;;;;;3.60;3.10;;;32.30;61.60;;;;;;5055730;28;20497;-68
2022/06/19 13:27:21;;;;;;;4.07;2.90;;;32.10;61.50;;;;;;5055455;28;20436;-69
2022/06/19 13:30:16;;;;;;;3.30;1.90;;;31.60;62.20;;;;;;5055652;28;20454;-69
2022/06/19 13:33:07;;;;;;;3.47;2.37;;;31.50;62.80;;;;;;5055478;28;20405;-69